Mobridge Municipal Airport Mobridge US
ICAO: KMBG
IATA: MBG
Category: Medium
Scheduled Services: No

Elevation: 1716 ft
TransAlt. 18000 ft.

Airport Communications:
ASOS:121.425
HURON RDO:122.35
CTAF/UNICOM:122.8

KMBG Zoom In..

Runways:

(A) RW 12 length 4410 ft width 75 ft
---- / hdg 118

(B) RW 17 length 2399 ft width 250 ft
---- / hdg 171

(C) RW 30 length 4410 ft width 75 ft
---- / hdg 298

(D) RW 35 length 2399 ft width 250 ft
---- / hdg 351

Location; KMBG
Day. 21 / Time. 23.52 Zulu
* Altimeter: 29.99
* Temperature: -02° c. -28.4°f.
* Wind from: 020° Speed 05 kn.
Dewpoint: -04° c.
Visibility: 10 Statute Miles.
Clouds: Clear (automated report).

KMBG 212352Z AUTO 02005KT 10SM CLR M02/M04 A2999 RMK AO2 SLP176 T10171044 10011 21017 51010


Wind From 020°
Speed 05 kn.

jpsM music video
CHECK IT OUT

jpsM - It Moves..

 
jpsmedia.com for Web Design  worldairports.se 2018   terms of use